Time;durP1;ratioP1;P1;durP2;ratioP2;P2;SDS_P1;SDS_P2;PMS_P1;PMS_P2;Temp;Humidity;BMP_temperature;BMP_pressure;BME280_temperature;BME280_humidity;BME280_pressure;Samples;Min_cycle;Max_cycle;Signal;HPM_P1;HPM_P2
2022/06/29 00:00:10;;;;;;;;;;;16.90;99.90;;;;;;5012875;28;19957;-65
2022/06/29 00:02:37;;;;;;;;;;;16.90;99.90;;;;;;5013125;28;19971;-66
2022/06/29 00:05:06;;;;;;;;;;;16.80;99.90;;;;;;5013049;28;19954;-66
2022/06/29 00:07:33;;;;;;;;;;;16.80;99.90;;;;;;5012917;28;20307;-65
2022/06/29 00:10:00;;;;;;;;;;;16.80;99.90;;;;;;5012794;28;19975;-65
2022/06/29 00:12:26;;;;;;;;;;;16.80;99.90;;;;;;5012825;28;20340;-65
2022/06/29 00:14:55;;;;;;;;;;;16.80;99.90;;;;;;5012752;28;19925;-65
2022/06/29 00:17:22;;;;;;;;;;;16.70;99.90;;;;;;5012732;28;20289;-65
2022/06/29 00:19:49;;;;;;;;;;;16.60;99.90;;;;;;5012587;28;19925;-64
2022/06/29 00:22:17;;;;;;;;;;;16.50;99.90;;;;;;5013091;28;19925;-64
2022/06/29 00:24:44;;;;;;;;;;;16.50;99.90;;;;;;5012610;28;19960;-64
2022/06/29 00:27:11;;;;;;;;;;;16.40;99.90;;;;;;5012493;28;20340;-63
2022/06/29 00:29:39;;;;;;;;;;;16.40;99.90;;;;;;5015410;28;19925;-65
2022/06/29 00:32:05;;;;;;;;;;;16.10;99.90;;;;;;5016284;28;19932;-64
2022/06/29 00:34:33;;;;;;;;;;;16.00;99.90;;;;;;5016093;28;19956;-65
2022/06/29 00:37:00;;;;;;;;;;;15.90;99.90;;;;;;5016148;28;19925;-65
2022/06/29 00:39:28;;;;;;;;;;;15.90;99.90;;;;;;5015873;28;19932;-64
2022/06/29 00:41:55;;;;;;;;;;;15.80;99.90;;;;;;5016182;28;19925;-65
2022/06/29 00:44:22;;;;;;;;;;;15.80;99.90;;;;;;5015658;28;19952;-65
2022/06/29 00:46:50;;;;;;;;;;;15.70;99.90;;;;;;5015894;28;19925;-65
2022/06/29 00:49:17;;;;;;;;;;;15.70;99.90;;;;;;5016024;28;19925;-65
2022/06/29 00:51:45;;;;;;;;;;;15.70;99.90;;;;;;5015573;28;19925;-65
2022/06/29 00:54:14;;;;;;;;;;;15.70;99.90;;;;;;5015755;28;19929;-65
2022/06/29 00:56:43;;;;;;;;;;;15.70;99.90;;;;;;5016013;28;20405;-65
2022/06/29 00:59:12;;;;;;;;;;;15.60;99.90;;;;;;5015411;28;20316;-64
2022/06/29 01:01:39;;;;;;;;;;;15.60;99.90;;;;;;5015406;28;20360;-66
2022/06/29 01:04:06;;;;;;;;;;;15.60;99.90;;;;;;5015858;28;19925;-64
2022/06/29 01:06:33;;;;;;;;;;;15.60;99.90;;;;;;5015603;28;19925;-66
2022/06/29 01:09:00;;;;;;;;;;;15.60;99.90;;;;;;5014883;28;20012;-64
2022/06/29 01:11:27;;;;;;;;;;;15.60;99.90;;;;;;5015129;28;19932;-65
2022/06/29 01:13:55;;;;;;;;;;;15.50;99.90;;;;;;5014813;28;19925;-65
2022/06/29 01:16:22;;;;;;;;;;;15.50;99.90;;;;;;5015307;28;19932;-65
2022/06/29 01:18:49;;;;;;;;;;;15.60;99.90;;;;;;5015619;28;19925;-64
2022/06/29 01:21:19;;;;;;;;;;;15.60;99.90;;;;;;5015662;28;19925;-63
2022/06/29 01:23:47;;;;;;;;;;;15.50;99.90;;;;;;5015834;28;19932;-65
2022/06/29 01:26:14;;;;;;;;;;;15.50;99.90;;;;;;5016124;28;20351;-65
2022/06/29 01:28:43;;;;;;;;;;;15.50;99.90;;;;;;5015909;28;19971;-64
2022/06/29 01:31:13;;;;;;;;;;;15.50;99.90;;;;;;5015821;28;19925;-65
2022/06/29 01:33:39;;;;;;;;;;;15.50;99.90;;;;;;5016064;28;19979;-64
2022/06/29 01:36:07;;;;;;;;;;;15.50;99.90;;;;;;5015966;28;19925;-65
2022/06/29 01:38:35;;;;;;;;;;;15.50;99.90;;;;;;5015848;28;19925;-63
2022/06/29 01:41:03;;;;;;;;;;;15.40;99.90;;;;;;5015003;28;19932;-65
2022/06/29 01:43:31;;;;;;;;;;;15.40;99.90;;;;;;5016103;28;19956;-64
2022/06/29 01:45:57;;;;;;;;;;;15.30;99.90;;;;;;5015997;28;19963;-64
2022/06/29 01:48:24;;;;;;;;;;;15.20;99.90;;;;;;5015893;28;19929;-64
2022/06/29 01:50:51;;;;;;;;;;;15.20;99.90;;;;;;5015436;28;19925;-64
2022/06/29 01:53:18;;;;;;;;;;;15.10;99.90;;;;;;5015898;28;19929;-64
2022/06/29 01:55:47;;;;;;;;;;;15.00;99.90;;;;;;4999075;28;21942;-65
2022/06/29 01:58:15;;;;;;;;;;;15.00;99.90;;;;;;5015965;28;19932;-64
2022/06/29 02:00:43;;;;;;;;;;;15.00;99.90;;;;;;5015519;28;19983;-64
2022/06/29 02:03:10;;;;;;;;;;;15.00;99.90;;;;;;5015723;28;20004;-64
2022/06/29 02:05:36;;;;;;;;;;;15.00;99.90;;;;;;5015460;28;20316;-64
2022/06/29 02:08:03;;;;;;;;;;;15.00;99.90;;;;;;5015066;28;20368;-64
2022/06/29 02:10:30;;;;;;;;;;;14.90;99.90;;;;;;5015295;28;20333;-65
2022/06/29 02:12:57;;;;;;;;;;;14.90;99.90;;;;;;5015252;28;19932;-64
2022/06/29 02:15:25;;;;;;;;;;;14.90;99.90;;;;;;5014954;28;19925;-64
2022/06/29 02:17:52;;;;;;;;;;;14.90;99.90;;;;;;5015147;28;19925;-64
2022/06/29 02:20:19;;;;;;;;;;;14.90;99.90;;;;;;5015226;28;19933;-64
2022/06/29 02:22:47;;;;;;;;;;;14.90;99.90;;;;;;5015217;28;20386;-65
2022/06/29 02:25:14;;;;;;;;;;;14.90;99.90;;;;;;5014459;28;19925;-64
2022/06/29 02:27:41;;;;;;;;;;;14.90;99.90;;;;;;5014937;28;19929;-64
2022/06/29 02:30:09;;;;;;;;;;;15.00;99.90;;;;;;5014919;28;19925;-64
2022/06/29 02:35:21;;;;;;;;;;;15.00;99.90;;;;;;5014633;28;19964;-65
2022/06/29 02:37:48;;;;;;;;;;;15.00;99.90;;;;;;5015057;28;19925;-64
2022/06/29 02:40:14;;;;;;;;;;;15.00;99.90;;;;;;5014545;28;19933;-64
2022/06/29 02:42:41;;;;;;;;;;;15.00;99.90;;;;;;5014680;28;19925;-65
2022/06/29 02:45:08;;;;;;;;;;;15.00;99.90;;;;;;5014811;28;19925;-64
2022/06/29 02:47:37;;;;;;;;;;;14.90;99.90;;;;;;5014906;28;19929;-64
2022/06/29 02:50:04;;;;;;;;;;;14.90;99.90;;;;;;5014446;28;19929;-64
2022/06/29 02:52:30;;;;;;;;;;;14.70;99.90;;;;;;5013938;28;19929;-64
2022/06/29 02:54:57;;;;;;;;;;;14.60;99.90;;;;;;5014654;28;19971;-64
2022/06/29 02:57:24;;;;;;;;;;;14.50;99.90;;;;;;5014480;28;20320;-64
2022/06/29 02:59:51;;;;;;;;;;;14.40;99.90;;;;;;5014365;28;19925;-64
2022/06/29 03:02:18;;;;;;;;;;;14.40;99.90;;;;;;5014455;28;19932;-65
2022/06/29 03:04:46;;;;;;;;;;;14.30;99.90;;;;;;5014179;28;19925;-64
2022/06/29 03:07:13;;;;;;;;;;;14.40;99.90;;;;;;5014584;28;20290;-64
2022/06/29 03:09:40;;;;;;;;;;;14.40;99.90;;;;;;5014377;28;19952;-64
2022/06/29 03:12:06;;;;;;;;;;;14.40;99.90;;;;;;5014498;28;19933;-63
2022/06/29 03:14:33;;;;;;;;;;;14.40;99.90;;;;;;5014390;28;19929;-64
2022/06/29 03:17:00;;;;;;;;;;;14.40;99.90;;;;;;5014504;28;19998;-64
2022/06/29 03:19:27;;;;;;;;;;;14.40;99.90;;;;;;5014094;28;19932;-65
2022/06/29 03:21:55;;;;;;;;;;;14.30;99.90;;;;;;5014370;28;19926;-64
2022/06/29 03:24:23;;;;;;;;;;;14.30;99.90;;;;;;5014039;28;20407;-64
2022/06/29 03:26:50;;;;;;;;;;;14.30;99.90;;;;;;5014550;28;19957;-64
2022/06/29 03:29:17;;;;;;;;;;;14.40;99.90;;;;;;5013952;28;19925;-65
2022/06/29 03:31:43;;;;;;;;;;;14.40;99.90;;;;;;5014207;28;19929;-64
2022/06/29 03:34:10;;;;;;;;;;;14.40;99.90;;;;;;5014236;28;19979;-65
2022/06/29 03:36:37;;;;;;;;;;;14.40;99.90;;;;;;5014221;28;19929;-64
2022/06/29 03:39:05;;;;;;;;;;;14.40;99.90;;;;;;5013792;28;19936;-64
2022/06/29 03:41:32;;;;;;;;;;;14.40;99.90;;;;;;5014357;28;19925;-63
2022/06/29 03:43:59;;;;;;;;;;;14.40;99.90;;;;;;5014149;28;19932;-64
2022/06/29 03:46:25;;;;;;;;;;;14.40;99.90;;;;;;5014354;28;19932;-65
2022/06/29 03:48:52;;;;;;;;;;;14.40;99.90;;;;;;5014082;28;19925;-65
2022/06/29 03:51:19;;;;;;;;;;;14.40;99.90;;;;;;5013252;28;19925;-64
2022/06/29 03:53:46;;;;;;;;;;;14.40;99.90;;;;;;5013266;28;19996;-64
2022/06/29 03:56:14;;;;;;;;;;;14.30;99.90;;;;;;5014174;28;20332;-65
2022/06/29 03:58:41;;;;;;;;;;;14.30;99.90;;;;;;5013791;28;20040;-65
2022/06/29 04:01:08;;;;;;;;;;;14.30;99.90;;;;;;5014055;28;19925;-65
2022/06/29 04:03:34;;;;;;;;;;;14.20;99.90;;;;;;5014754;28;19937;-64
2022/06/29 04:06:01;;;;;;;;;;;14.20;99.90;;;;;;5018018;28;19941;-64
2022/06/29 04:08:28;;;;;;;;;;;14.30;99.90;;;;;;5017527;28;19932;-65
2022/06/29 04:10:55;;;;;;;;;;;14.30;99.90;;;;;;5017298;28;19933;-65
2022/06/29 04:13:23;;;;;;;;;;;14.30;99.90;;;;;;5017634;28;19925;-65
2022/06/29 04:15:50;;;;;;;;;;;14.30;99.90;;;;;;5017688;28;19960;-65
2022/06/29 04:18:17;;;;;;;;;;;14.40;99.90;;;;;;5017729;28;19925;-65
2022/06/29 04:23:28;;;;;;;;;;;14.50;99.90;;;;;;5017180;28;19925;-64
2022/06/29 04:25:55;;;;;;;;;;;14.50;99.90;;;;;;5017322;28;19948;-64
2022/06/29 04:28:23;;;;;;;;;;;14.50;99.90;;;;;;5017342;28;19925;-64
2022/06/29 04:30:50;;;;;;;;;;;14.60;99.90;;;;;;5017055;28;19932;-66
2022/06/29 04:33:17;;;;;;;;;;;14.70;99.90;;;;;;5016243;28;19933;-64
2022/06/29 04:35:43;;;;;;;;;;;14.70;99.90;;;;;;5004237;28;19926;-65
2022/06/29 04:38:10;;;;;;;;;;;14.80;99.90;;;;;;4996604;28;19949;-66
2022/06/29 04:40:37;;;;;;;;;;;14.90;99.90;;;;;;4996581;28;19930;-64
2022/06/29 04:43:04;;;;;;;;;;;14.90;99.90;;;;;;4996484;28;19929;-65
2022/06/29 04:48:16;;;;;;;;;;;15.10;99.90;;;;;;4996481;28;19932;-64
2022/06/29 04:50:43;;;;;;;;;;;15.20;99.90;;;;;;4996297;28;19925;-66
2022/06/29 04:53:10;;;;;;;;;;;15.20;99.90;;;;;;4996526;28;19926;-64
2022/06/29 04:55:37;;;;;;;;;;;15.20;99.90;;;;;;4996282;28;19941;-64
2022/06/29 04:58:03;;;;;;;;;;;15.20;99.90;;;;;;4999110;28;19925;-65
2022/06/29 05:00:32;;;;;;;;;;;15.20;99.90;;;;;;4998939;28;19925;-64
2022/06/29 05:02:58;;;;;;;;;;;15.30;99.90;;;;;;5008128;28;19933;-63
2022/06/29 05:05:25;;;;;;;;;;;15.30;99.90;;;;;;5009893;28;19937;-64
2022/06/29 05:07:52;;;;;;;;;;;15.40;99.90;;;;;;5002323;28;19929;-64
2022/06/29 05:10:19;;;;;;;;;;;15.50;99.90;;;;;;5007421;28;19925;-67
2022/06/29 05:12:46;;;;;;;;;;;15.50;99.90;;;;;;5016661;28;19932;-64
2022/06/29 05:15:13;;;;;;;;;;;15.60;99.90;;;;;;5014886;28;19925;-64
2022/06/29 05:17:41;;;;;;;;;;;15.70;99.90;;;;;;5015979;28;19932;-64
2022/06/29 05:20:09;;;;;;;;;;;15.90;99.90;;;;;;5003320;28;19925;-65
2022/06/29 05:22:36;;;;;;;;;;;16.00;99.90;;;;;;4994744;28;19933;-65
2022/06/29 05:25:04;;;;;;;;;;;16.30;99.90;;;;;;4994268;28;20285;-65
2022/06/29 05:27:31;;;;;;;;;;;16.50;99.90;;;;;;4994110;28;19932;-65
2022/06/29 05:29:57;;;;;;;;;;;16.60;99.90;;;;;;4994202;28;19980;-64
2022/06/29 05:32:24;;;;;;;;;;;16.80;99.90;;;;;;4994203;28;19933;-64
2022/06/29 05:34:52;;;;;;;;;;;16.90;99.90;;;;;;4995543;28;19932;-63
2022/06/29 05:37:19;;;;;;;;;;;17.00;99.90;;;;;;5006544;28;19925;-65
2022/06/29 05:39:46;;;;;;;;;;;17.20;99.90;;;;;;5015335;28;19936;-64
2022/06/29 05:42:13;;;;;;;;;;;17.40;99.90;;;;;;5015657;28;19925;-65
2022/06/29 05:44:40;;;;;;;;;;;17.50;99.90;;;;;;5008705;28;19925;-66
2022/06/29 05:47:07;;;;;;;;;;;17.60;99.90;;;;;;5004626;28;19933;-64
2022/06/29 05:49:34;;;;;;;;;;;17.70;99.90;;;;;;5001659;28;20024;-65
2022/06/29 05:52:02;;;;;;;;;;;17.80;99.90;;;;;;4995849;28;19929;-65
2022/06/29 05:54:29;;;;;;;;;;;17.90;99.90;;;;;;4995193;28;19930;-65
2022/06/29 05:56:56;;;;;;;;;;;17.90;99.90;;;;;;5005416;28;19929;-64
2022/06/29 05:59:22;;;;;;;;;;;18.00;99.90;;;;;;5017831;28;19929;-64
2022/06/29 06:01:49;;;;;;;;;;;18.10;99.90;;;;;;5035369;28;19929;-63
2022/06/29 06:04:16;;;;;;;;;;;18.20;99.90;;;;;;5025200;28;20310;-65
2022/06/29 06:06:43;;;;;;;;;;;18.20;99.90;;;;;;4997254;28;19929;-64
2022/06/29 06:09:11;;;;;;;;;;;18.30;99.90;;;;;;5011221;28;19952;-65
2022/06/29 06:11:38;;;;;;;;;;;18.40;99.90;;;;;;5001887;28;20379;-64
2022/06/29 06:14:05;;;;;;;;;;;18.50;99.90;;;;;;4995732;28;19925;-65
2022/06/29 06:16:31;;;;;;;;;;;18.60;99.90;;;;;;4995700;28;19926;-65
2022/06/29 06:18:58;;;;;;;;;;;18.90;99.90;;;;;;4995596;28;19926;-62
2022/06/29 06:21:25;;;;;;;;;;;19.20;99.90;;;;;;4995916;28;19933;-62
2022/06/29 06:23:52;;;;;;;;;;;19.50;99.90;;;;;;4995384;28;19933;-64
2022/06/29 06:26:20;;;;;;;;;;;19.70;99.90;;;;;;4995305;28;19925;-65
2022/06/29 06:28:47;;;;;;;;;;;19.90;99.90;;;;;;4995247;28;19929;-62
2022/06/29 06:31:14;;;;;;;;;;;20.00;99.90;;;;;;5009781;28;20012;-65
2022/06/29 06:33:41;;;;;;;;;;;20.10;99.90;;;;;;4995550;28;19933;-65
2022/06/29 06:36:08;;;;;;;;;;;20.20;99.90;;;;;;5002797;28;19933;-64
2022/06/29 06:38:34;;;;;;;;;;;20.20;99.90;;;;;;5011213;28;19934;-64
2022/06/29 06:43:47;;;;;;;;;;;20.30;99.90;;;;;;5010696;28;19932;-65
2022/06/29 06:46:14;;;;;;;;;;;20.40;99.90;;;;;;4995065;28;20374;-64
2022/06/29 06:48:42;;;;;;;;;;;20.50;99.90;;;;;;4994464;28;19925;-63
2022/06/29 06:51:10;;;;;;;;;;;20.50;99.90;;;;;;4995211;28;19925;-61
2022/06/29 06:53:37;;;;;;;;;;;20.40;99.90;;;;;;4994967;28;20524;-64
2022/06/29 06:56:04;;;;;;;;;;;20.30;99.90;;;;;;4994942;28;19930;-64
2022/06/29 06:58:30;;;;;;;;;;;20.30;99.90;;;;;;4994514;28;19933;-65
2022/06/29 07:00:58;;;;;;;;;;;20.30;99.90;;;;;;4994749;28;19936;-64
2022/06/29 07:03:25;;;;;;;;;;;20.30;99.90;;;;;;4994513;28;19925;-63
2022/06/29 07:05:52;;;;;;;;;;;20.40;99.90;;;;;;4995267;28;19933;-65
2022/06/29 07:08:19;;;;;;;;;;;20.30;99.90;;;;;;4994878;28;19932;-65
2022/06/29 07:10:46;;;;;;;;;;;20.10;99.90;;;;;;4994768;28;19926;-65
2022/06/29 07:13:12;;;;;;;;;;;20.10;99.90;;;;;;4995089;28;19933;-65
2022/06/29 07:15:39;;;;;;;;;;;20.10;99.90;;;;;;4994787;28;19976;-64
2022/06/29 07:18:08;;;;;;;;;;;20.10;99.90;;;;;;4994688;28;19925;-64
2022/06/29 07:20:35;;;;;;;;;;;20.10;99.90;;;;;;4994791;28;19926;-64
2022/06/29 07:23:01;;;;;;;;;;;20.20;99.90;;;;;;4994883;28;19929;-64
2022/06/29 07:25:28;;;;;;;;;;;20.30;99.90;;;;;;4994779;28;19929;-64
2022/06/29 07:27:55;;;;;;;;;;;20.40;99.90;;;;;;4994676;28;19929;-64
2022/06/29 07:30:22;;;;;;;;;;;20.40;99.90;;;;;;4994751;28;19926;-65
2022/06/29 07:32:48;;;;;;;;;;;20.50;99.90;;;;;;4994549;28;20384;-64
2022/06/29 07:35:17;;;;;;;;;;;20.50;99.90;;;;;;4994406;28;19925;-64
2022/06/29 07:37:43;;;;;;;;;;;20.60;99.90;;;;;;4994353;28;19960;-64
2022/06/29 07:40:11;;;;;;;;;;;20.50;99.90;;;;;;4998445;28;19926;-64
2022/06/29 07:42:38;;;;;;;;;;;20.50;99.90;;;;;;4998854;28;19987;-65
2022/06/29 07:45:05;;;;;;;;;;;20.60;99.90;;;;;;4998458;28;19925;-63
2022/06/29 07:47:32;;;;;;;;;;;20.60;99.90;;;;;;4998444;28;19933;-65
2022/06/29 07:49:59;;;;;;;;;;;20.70;99.90;;;;;;4997999;28;20333;-64
2022/06/29 07:52:27;;;;;;;;;;;20.70;99.90;;;;;;4998693;28;19926;-64
2022/06/29 07:54:54;;;;;;;;;;;20.70;99.90;;;;;;4997987;28;19976;-65
2022/06/29 07:57:21;;;;;;;;;;;20.80;99.90;;;;;;4998539;28;19929;-64
2022/06/29 07:59:48;;;;;;;;;;;20.90;99.90;;;;;;4998145;28;19925;-64
2022/06/29 08:02:15;;;;;;;;;;;20.90;99.90;;;;;;4998588;28;19925;-65
2022/06/29 08:04:41;;;;;;;;;;;21.00;99.90;;;;;;4998127;28;19932;-65
2022/06/29 08:07:09;;;;;;;;;;;21.10;99.90;;;;;;4998072;28;19932;-62
2022/06/29 08:09:37;;;;;;;;;;;21.20;99.90;;;;;;4997834;28;20425;-64
2022/06/29 08:12:04;;;;;;;;;;;21.30;99.90;;;;;;4998337;28;19987;-66
2022/06/29 08:14:30;;;;;;;;;;;21.40;99.90;;;;;;4997979;28;20036;-65
2022/06/29 08:16:57;;;;;;;;;;;21.50;99.90;;;;;;4998326;28;19929;-65
2022/06/29 08:19:24;;;;;;;;;;;21.50;99.90;;;;;;4997440;28;19926;-65
2022/06/29 08:21:51;;;;;;;;;;;21.40;99.90;;;;;;4997817;28;19925;-64
2022/06/29 08:24:17;;;;;;;;;;;21.50;99.90;;;;;;4997680;28;19925;-64
2022/06/29 08:26:46;;;;;;;;;;;21.60;99.90;;;;;;4997976;28;19930;-65
2022/06/29 08:29:12;;;;;;;;;;;21.70;99.90;;;;;;4997392;28;19933;-64
2022/06/29 08:31:39;;;;;;;;;;;21.80;99.90;;;;;;4997898;28;19926;-65
2022/06/29 08:34:06;;;;;;;;;;;21.90;99.90;;;;;;4997374;28;19925;-65
2022/06/29 08:36:33;;;;;;;;;;;21.90;99.90;;;;;;4997435;28;20037;-65
2022/06/29 08:39:01;;;;;;;;;;;21.90;99.90;;;;;;4997471;28;19929;-65
2022/06/29 08:41:29;;;;;;;;;;;22.00;99.90;;;;;;4997787;28;19941;-64
2022/06/29 08:43:58;;;;;;;;;;;22.00;99.90;;;;;;4996932;28;19926;-65
2022/06/29 08:46:25;;;;;;;;;;;22.10;99.90;;;;;;4997628;28;19925;-65
2022/06/29 08:48:52;;;;;;;;;;;22.20;99.90;;;;;;4997281;28;19925;-65
2022/06/29 08:51:19;;;;;;;;;;;22.30;99.90;;;;;;4997358;28;19930;-65
2022/06/29 08:53:46;;;;;;;;;;;22.50;99.90;;;;;;4995947;28;19926;-66
2022/06/29 08:56:13;;;;;;;;;;;22.70;99.90;;;;;;4996501;28;19929;-65
2022/06/29 08:58:41;;;;;;;;;;;22.80;99.90;;;;;;4996191;28;19933;-65
2022/06/29 09:01:09;;;;;;;;;;;23.00;99.90;;;;;;4996963;28;19934;-64
2022/06/29 09:03:37;;;;;;;;;;;23.10;99.90;;;;;;4996971;28;20013;-64
2022/06/29 09:06:06;;;;;;;;;;;23.30;99.90;;;;;;4996994;28;19929;-65
2022/06/29 09:08:33;;;;;;;;;;;23.40;99.90;;;;;;4996976;28;19965;-64
2022/06/29 09:11:20;;;;;;;;;;;23.30;99.90;;;;;;4996583;28;20012;-65
2022/06/29 09:13:47;;;;;;;;;;;23.40;99.90;;;;;;4996606;28;19932;-65
2022/06/29 09:16:16;;;;;;;;;;;23.60;99.90;;;;;;4997151;28;20349;-65
2022/06/29 09:18:43;;;;;;;;;;;23.70;99.90;;;;;;4996526;28;19975;-64
2022/06/29 09:21:10;;;;;;;;;;;23.90;99.90;;;;;;4997246;28;19925;-64
2022/06/29 09:23:36;;;;;;;;;;;24.10;99.90;;;;;;5033978;28;19925;-64
2022/06/29 09:26:03;;;;;;;;;;;24.20;99.90;;;;;;5016386;28;19925;-64
2022/06/29 09:28:31;;;;;;;;;;;24.10;99.90;;;;;;5015938;28;19951;-65
2022/06/29 09:30:59;;;;;;;;;;;24.10;99.90;;;;;;5015272;28;19928;-65
2022/06/29 09:33:28;;;;;;;;;;;24.00;99.90;;;;;;5016064;28;19932;-64
2022/06/29 09:36:05;;;;;;;;;;;24.10;99.90;;;;;;5015824;28;19932;-65
2022/06/29 09:38:32;;;;;;;;;;;24.30;99.90;;;;;;5017852;28;19929;-65
2022/06/29 09:40:59;;;;;;;;;;;24.60;99.90;;;;;;5015543;28;20416;-65
2022/06/29 09:43:26;;;;;;;;;;;24.60;99.90;;;;;;5015364;28;19925;-65
2022/06/29 09:45:54;;;;;;;;;;;24.60;99.90;;;;;;5015475;28;19925;-65
2022/06/29 09:48:22;;;;;;;;;;;24.80;99.90;;;;;;5015205;28;19932;-65
2022/06/29 09:50:51;;;;;;;;;;;24.90;99.90;;;;;;5015267;28;19987;-65
2022/06/29 09:53:18;;;;;;;;;;;25.00;99.90;;;;;;5015824;28;19925;-65
2022/06/29 09:55:47;;;;;;;;;;;25.10;99.90;;;;;;5015521;28;19932;-66
2022/06/29 09:58:15;;;;;;;;;;;25.10;99.90;;;;;;5015029;28;19929;-66
2022/06/29 10:03:26;;;;;;;;;;;24.90;99.90;;;;;;5014989;28;19956;-66
2022/06/29 10:06:04;;;;;;;;;;;24.70;99.90;;;;;;5026593;28;20355;-65
2022/06/29 10:08:32;;;;;;;;;;;24.60;99.90;;;;;;5013667;28;19925;-67
2022/06/29 10:13:39;;;;;;;;;;;24.50;99.90;;;;;;5011886;28;19932;-65
2022/06/29 10:13:49;;;;;;;;;;;24.70;99.90;;;;;;5014414;28;19925;-66
2022/06/29 10:16:22;;;;;;;;;;;24.80;99.90;;;;;;5015190;28;19921;-65
2022/06/29 10:19:04;;;;;;;;;;;25.00;99.90;;;;;;5023580;28;19924;-66
2022/06/29 10:21:33;;;;;;;;;;;25.30;99.90;;;;;;5010553;28;20377;-65
2022/06/29 10:24:00;;;;;;;;;;;25.40;99.90;;;;;;5014769;28;20016;-65
2022/06/29 10:26:43;;;;;;;;;;;25.50;99.90;;;;;;5015530;28;19940;-66
2022/06/29 10:29:29;;;;;;;;;;;25.60;99.90;;;;;;5028159;28;20336;-65
2022/06/29 10:31:59;;;;;;;;;;;25.70;99.90;;;;;;5015015;28;20297;-65
2022/06/29 10:35:05;;;;;;;;;;;25.70;99.90;;;;;;5014597;28;19925;-66
2022/06/29 10:37:28;;;;;;;;;;;25.80;99.90;;;;;;5014766;28;19972;-65
2022/06/29 10:39:55;;;;;;;;;;;25.90;99.90;;;;;;5014724;28;19971;-66
2022/06/29 10:45:24;;;;;;;;;;;26.30;99.90;;;;;;5014126;28;19929;-66
2022/06/29 10:48:12;;;;;;;;;;;26.40;99.90;;;;;;5014093;28;19942;-66
2022/06/29 10:50:39;;;;;;;;;;;26.50;99.90;;;;;;5013704;28;19960;-65
2022/06/29 10:53:08;;;;;;;;;;;26.60;99.90;;;;;;5011718;28;19952;-66
2022/06/29 10:55:36;;;;;;;;;;;26.30;99.90;;;;;;5015062;28;19925;-65
2022/06/29 10:58:03;;;;;;;;;;;26.30;99.90;;;;;;5014134;28;19931;-68
2022/06/29 11:00:31;;;;;;;;;;;26.30;99.90;;;;;;5013916;28;19925;-65
2022/06/29 11:02:57;;;;;;;;;;;26.40;99.90;;;;;;5013941;28;19925;-66
2022/06/29 11:05:24;;;;;;;;;;;26.50;99.90;;;;;;5013844;28;19932;-65
2022/06/29 11:13:23;;;;;;;;;;;26.30;99.90;;;;;;5011294;28;19929;-66
2022/06/29 11:15:50;;;;;;;;;;;26.20;99.90;;;;;;5022465;28;19925;-66
2022/06/29 11:18:18;;;;;;;;;;;26.20;99.90;;;;;;5014199;28;19930;-68
2022/06/29 11:20:46;;;;;;;;;;;26.30;99.90;;;;;;5006360;28;19932;-66
2022/06/29 11:23:14;;;;;;;;;;;26.40;99.90;;;;;;5014197;28;19929;-66
2022/06/29 11:25:43;;;;;;;;;;;26.60;99.90;;;;;;5014016;28;19925;-67
2022/06/29 11:28:10;;;;;;;;;;;26.80;99.90;;;;;;5013312;28;19990;-64
2022/06/29 11:30:37;;;;;;;;;;;26.90;99.90;;;;;;5030224;28;19968;-65
2022/06/29 11:33:10;;;;;;;;;;;26.90;99.90;;;;;;5014398;28;20004;-65
2022/06/29 11:35:37;;;;;;;;;;;27.00;99.90;;;;;;5013979;28;19925;-65
2022/06/29 11:38:05;;;;;;;;;;;27.10;99.90;;;;;;5014048;28;19925;-65
2022/06/29 11:40:33;;;;;;;;;;;27.40;99.90;;;;;;5013888;28;19925;-65
2022/06/29 11:43:05;;;;;;;;;;;28.20;99.90;;;;;;5013893;28;19931;-65
2022/06/29 11:45:36;;;;;;;;;;;29.50;99.90;;;;;;5013843;28;19929;-65
2022/06/29 11:48:12;;;;;;;;;;;30.60;99.90;;;;;;5013724;28;19937;-65
2022/06/29 11:50:42;;;;;;;;;;;31.20;99.90;;;;;;5012956;28;20368;-65
2022/06/29 11:53:09;;;;;;;;;;;32.50;99.90;;;;;;5013463;28;19952;-65
2022/06/29 11:55:39;;;;;;;;;;;33.80;99.90;;;;;;5013314;28;19925;-64
2022/06/29 11:58:09;;;;;;;;;;;34.90;99.90;;;;;;5013527;28;20397;-65
2022/06/29 12:00:37;;;;;;;;;;;36.00;99.90;;;;;;5013599;28;19925;-65
2022/06/29 12:03:04;;;;;;;;;;;36.20;99.90;;;;;;5014042;28;20385;-65
2022/06/29 12:05:31;;;;;;;;;;;36.80;99.90;;;;;;5013174;28;19971;-65
2022/06/29 12:07:57;;;;;;;;;;;36.80;99.90;;;;;;5013894;28;20286;-65
2022/06/29 12:10:24;;;;;;;;;;;37.80;99.90;;;;;;5013311;28;19932;-65
2022/06/29 12:12:51;;;;;;;;;;;38.70;99.90;;;;;;5013909;28;20301;-65
2022/06/29 12:15:19;;;;;;;;;;;39.40;99.90;;;;;;5013240;28;19925;-65
2022/06/29 12:17:46;;;;;;;;;;;39.20;99.90;;;;;;5013704;28;19971;-64
2022/06/29 12:20:13;;;;;;;;;;;38.90;99.90;;;;;;5013480;28;20347;-65
2022/06/29 12:22:39;;;;;;;;;;;38.90;99.90;;;;;;5013707;28;19929;-65
2022/06/29 12:25:06;;;;;;;;;;;38.60;99.90;;;;;;5014682;28;19925;-65
2022/06/29 12:27:36;;;;;;;;;;;39.30;99.90;;;;;;5017121;28;20003;-65
2022/06/29 12:30:04;;;;;;;;;;;40.00;99.90;;;;;;5016579;28;19929;-65
2022/06/29 12:32:32;;;;;;;;;;;40.20;99.90;;;;;;5016760;28;20024;-66
2022/06/29 12:34:58;;;;;;;;;;;40.30;99.90;;;;;;5016769;28;19926;-66
2022/06/29 12:37:25;;;;;;;;;;;40.80;99.90;;;;;;5015426;28;20363;-64
2022/06/29 12:39:53;;;;;;;;;;;41.30;99.90;;;;;;5016674;28;19925;-66
2022/06/29 12:42:21;;;;;;;;;;;40.80;99.90;;;;;;5016500;28;19925;-65
2022/06/29 12:44:48;;;;;;;;;;;40.10;99.70;;;;;;5016626;28;19975;-65
2022/06/29 12:47:14;;;;;;;;;;;39.70;99.90;;;;;;5017274;28;19925;-65
2022/06/29 12:49:42;;;;;;;;;;;39.40;98.00;;;;;;5016903;28;19929;-65
2022/06/29 12:52:09;;;;;;;;;;;39.30;98.10;;;;;;5016880;28;19926;-65
2022/06/29 12:54:36;;;;;;;;;;;39.80;98.20;;;;;;5016832;28;19975;-65
2022/06/29 12:57:03;;;;;;;;;;;39.80;97.70;;;;;;5017047;28;19932;-66
2022/06/29 12:59:30;;;;;;;;;;;39.60;97.20;;;;;;5015963;28;19925;-65
2022/06/29 13:01:58;;;;;;;;;;;39.50;97.50;;;;;;5016493;28;19975;-65
2022/06/29 13:04:24;;;;;;;;;;;39.50;97.70;;;;;;5016415;28;19925;-65
2022/06/29 13:06:52;;;;;;;;;;;38.70;98.70;;;;;;5016517;28;19925;-65
2022/06/29 13:09:19;;;;;;;;;;;38.40;98.70;;;;;;5015823;28;19979;-65
2022/06/29 13:11:46;;;;;;;;;;;38.60;98.00;;;;;;5016569;28;20323;-65
2022/06/29 13:14:15;;;;;;;;;;;39.10;97.60;;;;;;5015819;28;19929;-65
2022/06/29 13:16:42;;;;;;;;;;;38.90;98.30;;;;;;5016377;28;19929;-65
2022/06/29 13:19:09;;;;;;;;;;;39.00;98.40;;;;;;5015898;28;20331;-65
2022/06/29 13:21:37;;;;;;;;;;;39.50;98.00;;;;;;5016292;28;19983;-65
2022/06/29 13:24:05;;;;;;;;;;;39.50;97.90;;;;;;5016264;28;19936;-65
2022/06/29 13:26:32;;;;;;;;;;;40.10;97.80;;;;;;5016010;28;19925;-65
2022/06/29 13:28:59;;;;;;;;;;;40.60;97.70;;;;;;5015930;28;19929;-65
2022/06/29 13:31:26;;;;;;;;;;;39.70;96.60;;;;;;5016098;28;19925;-65
2022/06/29 13:33:53;;;;;;;;;;;38.40;97.00;;;;;;5016221;28;19932;-65
2022/06/29 13:36:19;;;;;;;;;;;40.10;97.60;;;;;;5015484;28;19932;-65
2022/06/29 13:38:46;;;;;;;;;;;40.50;97.80;;;;;;5016014;28;19925;-66
2022/06/29 13:41:15;;;;;;;;;;;40.70;97.30;;;;;;5015702;28;19976;-65
2022/06/29 13:43:42;;;;;;;;;;;40.50;97.10;;;;;;5015630;28;19925;-65
2022/06/29 13:46:09;;;;;;;;;;;40.60;97.20;;;;;;5015898;28;19925;-65
2022/06/29 13:48:36;;;;;;;;;;;39.80;97.50;;;;;;5015762;28;19947;-65
2022/06/29 13:51:02;;;;;;;;;;;39.10;98.50;;;;;;5015634;28;19925;-66
2022/06/29 13:53:30;;;;;;;;;;;38.90;97.50;;;;;;5015779;28;19932;-65
2022/06/29 13:55:56;;;;;;;;;;;39.10;97.30;;;;;;5015861;28;19931;-65
2022/06/29 13:58:25;;;;;;;;;;;39.50;97.80;;;;;;5015453;28;19925;-65
2022/06/29 14:00:51;;;;;;;;;;;39.90;98.30;;;;;;5015246;28;19926;-65
2022/06/29 14:03:19;;;;;;;;;;;40.40;98.00;;;;;;5015831;28;19925;-65
2022/06/29 14:05:46;;;;;;;;;;;39.70;97.50;;;;;;5015138;28;19964;-65
2022/06/29 14:08:13;;;;;;;;;;;39.10;97.40;;;;;;5015050;28;19980;-65
2022/06/29 14:10:39;;;;;;;;;;;38.10;97.70;;;;;;5015143;28;19925;-65
2022/06/29 14:13:06;;;;;;;;;;;37.90;98.70;;;;;;5015514;28;19932;-65
2022/06/29 14:15:34;;;;;;;;;;;37.80;98.90;;;;;;5015044;28;19929;-65
2022/06/29 14:18:01;;;;;;;;;;;37.80;98.70;;;;;;5015728;28;19925;-64
2022/06/29 14:20:28;;;;;;;;;;;37.90;99.60;;;;;;5015021;28;20367;-65
2022/06/29 14:22:54;;;;;;;;;;;38.10;99.20;;;;;;5015456;28;20416;-65
2022/06/29 14:25:21;;;;;;;;;;;37.60;98.70;;;;;;5014875;28;20332;-65
2022/06/29 14:27:48;;;;;;;;;;;38.10;99.80;;;;;;5015068;28;19960;-65
2022/06/29 14:30:15;;;;;;;;;;;38.70;99.50;;;;;;5015171;28;20347;-65
2022/06/29 14:32:43;;;;;;;;;;;39.30;99.50;;;;;;5015249;28;19925;-64
2022/06/29 14:35:10;;;;;;;;;;;39.90;99.70;;;;;;5015089;28;19925;-65
2022/06/29 14:37:37;;;;;;;;;;;40.60;98.40;;;;;;5015094;28;19929;-66
2022/06/29 14:40:05;;;;;;;;;;;41.00;98.60;;;;;;5015036;28;20304;-65